PILOTS ONLINE: 283    ATC ONLINE: 31

KFOE

Forbes Field

Location

IATA FOE
City Topeka
Country  United States
Latitude 38° 57' 3" N
Longitude 95° 39' 48" W
Elevation 1078 ft
Type Medium Airport

Map

Weather

METAR
2014/10/25 03:53
KFOE 250353Z AUTO 21007KT 10SM CLR 19/16 A2998 RMK AO2 SLP147 T01940161
TAF
2014/10/24 18:30
TAF KFOE 241727Z 2418/2518 21013KT P6SM BKN250 
     FM242300 24005KT P6SM FEW250 
     FM251000 VRB02KT 4SM BR SKC 
     FM251400 01005KT P6SM SKC

Runways

03/21 7000 ft / 150 ft
13/31 12802 ft / 200 ft

Outbound flights

Callsign Flying to Pilot ATD/STD ETA Aircraft

Inbound flights

Callsign Flying from Pilot ATD ETA Aircraft